aviador You're here:

KJST Decoded Metar

JOHNSTOWN in PA, USA
Report Time2018-07-18 22:54:00
UTC Time2018-07-18 23:53:31
Flight Rules vfr VFR
Wind290° at 06 kt
W.Decomp.*RWY 33: 5.2 kt HW 3 kt LCW
RWY 23: 2.1 kt HW 5.6 kt RCW
W.Rank290° ranks 5
Current wind is below 290° avg. (10.2)
Visibility9999 m
Phenomena:N/A
Clouds:N/A
Expected CloudBase > 4,400 ft AGL from Temp-Dew spread
CeilingNone
Temp23°C (ISA +13)
Dew Point12°C (50% RH)
AAT21.5°C
QNH1018 hPa
Density Alt3,753 ft
Elevation2,277 ft
Report Wrong Elevation
Raw Report
KJST 182254Z AUTO 29006KT 10SM CLR 23/12 A3006 RMK AO2 SLP170
T02280117=

Extra information for KJST:More info

Metar Taf Metar & Taf Last 4 Metars F.Rules Stats Wind Profile Meteogram Temp Stats Airport Information Weather charts Add Link Nearby VenuesMetar ALERT Operation Metar Decoded Social comments

AIRNAV info for KJST